createdAt,value
2017-11-23T00:00:01.884Z,91.85
2017-11-23T00:02:28.461Z,91.44
2017-11-23T00:04:55.101Z,91.15
2017-11-23T00:07:21.634Z,91.24
2017-11-23T00:09:48.001Z,90.92
2017-11-23T00:12:14.402Z,90.97
2017-11-23T00:14:40.934Z,90.83
2017-11-23T00:17:07.430Z,91.45
2017-11-23T00:19:33.868Z,90.59
2017-11-23T00:22:00.544Z,90.58
2017-11-23T00:24:27.052Z,90.20
2017-11-23T00:26:53.412Z,90.39
2017-11-23T00:29:19.908Z,90.42
2017-11-23T00:31:46.349Z,90.61
2017-11-23T00:34:12.765Z,90.60
2017-11-23T00:36:39.208Z,90.60
2017-11-23T00:39:05.650Z,91.44
2017-11-23T00:41:32.064Z,91.94
2017-11-23T00:43:58.532Z,92.27
2017-11-23T00:46:25.054Z,92.26
2017-11-23T00:48:51.489Z,92.98
2017-11-23T00:51:18.072Z,93.17
2017-11-23T00:53:44.675Z,93.96
2017-11-23T00:56:10.924Z,94.06
2017-11-23T00:58:37.534Z,93.98
2017-11-23T01:01:03.956Z,94.57
2017-11-23T01:03:30.390Z,94.40
2017-11-23T01:05:56.932Z,94.78
2017-11-23T01:08:23.451Z,94.59
2017-11-23T01:10:49.893Z,94.50
2017-11-23T01:13:16.597Z,94.18
2017-11-23T01:15:43.201Z,94.05
2017-11-23T01:18:09.817Z,94.39
2017-11-23T01:20:36.336Z,95.76
2017-11-23T01:23:02.778Z,95.84
2017-11-23T01:25:29.353Z,95.94
2017-11-23T01:27:55.994Z,96.03
2017-11-23T01:30:22.602Z,95.98
2017-11-23T01:32:49.266Z,95.56
2017-11-23T01:35:15.885Z,95.42
2017-11-23T01:37:42.300Z,95.43
2017-11-23T01:40:08.722Z,95.09
2017-11-23T01:42:35.407Z,94.69
2017-11-23T01:45:02.026Z,94.11
2017-11-23T01:47:28.469Z,94.50
2017-11-23T01:49:55.117Z,94.50
2017-11-23T01:52:21.626Z,94.12
2017-11-23T01:54:48.188Z,94.21
2017-11-23T01:57:15.010Z,93.84
2017-11-23T01:59:41.452Z,94.05
2017-11-23T02:02:07.844Z,94.30
2017-11-23T02:04:34.540Z,94.24
2017-11-23T02:07:01.190Z,93.91
2017-11-23T02:09:27.792Z,93.72
2017-11-23T02:11:54.310Z,93.60
2017-11-23T02:14:20.683Z,93.23
2017-11-23T02:16:47.167Z,93.09
2017-11-23T02:19:13.711Z,93.07
2017-11-23T02:21:40.152Z,92.87
2017-11-23T02:24:06.568Z,93.02
2017-11-23T02:26:33.259Z,92.82
2017-11-23T02:28:59.877Z,92.10
2017-11-23T02:31:26.294Z,91.75
2017-11-23T02:33:52.960Z,92.40
2017-11-23T02:36:19.610Z,92.96
2017-11-23T02:38:46.217Z,93.23
2017-11-23T02:41:12.737Z,92.47
2017-11-23T02:43:39.316Z,92.65
2017-11-23T02:46:06.020Z,92.60
2017-11-23T02:48:32.464Z,92.31
2017-11-23T02:51:01.087Z,91.51
2017-11-23T02:53:27.798Z,90.88
2017-11-23T02:55:54.311Z,90.59
2017-11-23T02:58:20.751Z,90.46
2017-11-23T03:00:47.193Z,90.79
2017-11-23T03:03:13.639Z,90.43
2017-11-23T03:05:40.152Z,90.30
2017-11-23T03:08:06.512Z,90.56
2017-11-23T03:10:33.150Z,90.51
2017-11-23T03:12:59.777Z,90.59
2017-11-23T03:15:26.190Z,90.79
2017-11-23T03:17:52.874Z,90.93
2017-11-23T03:20:19.478Z,90.95
2017-11-23T03:22:45.890Z,90.17
2017-11-23T03:25:12.162Z,90.28
2017-11-23T03:27:38.594Z,89.99
2017-11-23T03:30:05.022Z,90.10
2017-11-23T03:32:31.670Z,89.59
2017-11-23T03:34:58.313Z,89.45
2017-11-23T03:37:24.773Z,89.67
2017-11-23T03:39:51.237Z,89.70
2017-11-23T03:42:17.812Z,89.08
2017-11-23T03:44:44.446Z,88.85
2017-11-23T03:47:10.939Z,88.40
2017-11-23T03:49:37.380Z,88.17
2017-11-23T03:52:03.956Z,88.24
2017-11-23T03:54:30.589Z,88.01
2017-11-23T03:56:57.045Z,88.40
2017-11-23T03:59:23.521Z,88.19
2017-11-23T04:01:50.065Z,88.23
2017-11-23T04:04:16.480Z,88.97
2017-11-23T04:06:42.921Z,89.18
2017-11-23T04:09:09.400Z,89.47
2017-11-23T04:11:35.628Z,89.56
2017-11-23T04:14:01.852Z,89.68
2017-11-23T04:16:28.291Z,89.44
2017-11-23T04:18:54.723Z,89.49
2017-11-23T04:21:21.362Z,89.49
2017-11-23T04:23:47.964Z,89.48
2017-11-23T04:26:14.383Z,89.48
2017-11-23T04:28:40.723Z,89.48
2017-11-23T04:31:07.165Z,89.65
2017-11-23T04:33:33.605Z,89.92
2017-11-23T04:36:00.025Z,90.32
2017-11-23T04:38:26.566Z,90.77
2017-11-23T04:40:52.981Z,92.38
2017-11-23T04:43:19.422Z,92.31
2017-11-23T04:45:46.106Z,93.19
2017-11-23T04:48:12.631Z,93.51
2017-11-23T04:50:39.123Z,93.81
2017-11-23T04:53:05.590Z,93.64
2017-11-23T04:55:32.106Z,93.93
2017-11-23T04:57:58.547Z,94.02
2017-11-23T05:00:25.092Z,93.93
2017-11-23T05:02:51.518Z,94.08
2017-11-23T05:05:17.974Z,94.06
2017-11-23T05:07:44.624Z,93.76
2017-11-23T05:10:11.132Z,93.22
2017-11-23T05:12:37.549Z,92.70
2017-11-23T05:15:04.091Z,92.50
2017-11-23T05:17:30.532Z,92.85
2017-11-23T05:19:56.973Z,92.96
2017-11-23T05:22:23.415Z,93.32
2017-11-23T05:24:50.033Z,93.45
2017-11-23T05:27:16.449Z,93.48
2017-11-23T05:29:43.143Z,93.54
2017-11-23T05:32:09.778Z,93.62
2017-11-23T05:34:36.417Z,93.55
2017-11-23T05:37:02.719Z,93.83
2017-11-23T05:39:29.283Z,93.77
2017-11-23T05:41:55.900Z,93.93
2017-11-23T05:44:22.564Z,93.76
2017-11-23T05:46:49.285Z,93.86
2017-11-23T05:49:15.700Z,94.05
2017-11-23T05:51:42.141Z,94.33
2017-11-23T05:54:08.508Z,94.48
2017-11-23T05:56:35.138Z,94.48
2017-11-23T05:59:01.769Z,94.50
2017-11-23T06:01:28.217Z,94.13
2017-11-23T06:03:54.846Z,93.77
2017-11-23T06:06:21.341Z,93.30
2017-11-23T06:08:47.759Z,91.64
2017-11-23T06:11:14.201Z,90.83
2017-11-23T06:13:40.750Z,82.11
2017-11-23T06:16:07.183Z,74.58
2017-11-23T06:18:33.601Z,70.93
2017-11-23T06:21:00.289Z,67.02
2017-11-23T06:23:26.785Z,64.51
2017-11-23T06:25:53.226Z,62.25
2017-11-23T06:28:19.744Z,59.88
2017-11-23T06:30:46.186Z,57.83
2017-11-23T06:33:12.458Z,57.29
2017-11-23T06:35:39.069Z,55.32
2017-11-23T06:38:05.380Z,55.42
2017-11-23T06:40:31.962Z,53.59
2017-11-23T06:42:58.594Z,60.91
2017-11-23T06:45:25.237Z,54.85
2017-11-23T06:47:52.084Z,54.62
2017-11-23T06:50:18.359Z,53.67
2017-11-23T06:52:44.936Z,51.32
2017-11-23T06:55:11.586Z,52.38
2017-11-23T06:57:38.224Z,52.01
2017-11-23T07:00:04.764Z,52.50
2017-11-23T07:02:31.251Z,52.44
2017-11-23T07:04:57.672Z,50.45
2017-11-23T07:07:23.970Z,51.28
2017-11-23T07:09:50.597Z,49.85
2017-11-23T07:12:17.236Z,49.97
2017-11-23T07:14:43.863Z,49.41
2017-11-23T07:17:10.508Z,49.72
2017-11-23T07:19:36.952Z,49.71
2017-11-23T07:22:03.175Z,49.43
2017-11-23T07:24:29.686Z,49.32
2017-11-23T07:26:56.048Z,48.51
2017-11-23T07:29:22.665Z,47.73
2017-11-23T07:31:49.063Z,47.48
2017-11-23T07:34:15.751Z,45.91
2017-11-23T07:36:42.183Z,45.54
2017-11-23T07:39:08.601Z,44.38
2017-11-23T07:41:35.068Z,44.53
2017-11-23T07:44:01.687Z,43.84
2017-11-23T07:46:28.183Z,42.59
2017-11-23T07:48:54.862Z,40.53
2017-11-23T07:51:21.371Z,41.19
2017-11-23T07:53:47.787Z,38.80
2017-11-23T07:56:14.238Z,40.59
2017-11-23T07:58:40.670Z,42.13
2017-11-23T08:01:07.187Z,39.80
2017-11-23T08:03:33.653Z,40.27
2017-11-23T08:06:00.306Z,37.77
2017-11-23T08:08:26.738Z,38.10
2017-11-23T08:10:53.354Z,37.17
2017-11-23T08:13:19.795Z,36.08
2017-11-23T08:15:46.448Z,33.61
2017-11-23T08:18:13.081Z,34.19
2017-11-23T08:20:39.726Z,35.53
2017-11-23T08:23:06.113Z,34.66
2017-11-23T08:25:32.657Z,33.54
2017-11-23T08:27:59.075Z,33.60
2017-11-23T08:30:25.517Z,34.71
2017-11-23T08:32:51.998Z,35.28
2017-11-23T08:35:18.628Z,36.48
2017-11-23T08:37:45.271Z,38.55
2017-11-23T08:40:11.761Z,39.03
2017-11-23T08:42:38.344Z,39.50
2017-11-23T08:45:04.850Z,38.98
2017-11-23T08:47:31.261Z,37.82
2017-11-23T08:49:57.850Z,39.12
2017-11-23T08:52:24.290Z,39.58
2017-11-23T08:54:50.920Z,41.58
2017-11-23T08:57:17.379Z,40.53
2017-11-23T08:59:43.991Z,38.43
2017-11-23T09:02:10.636Z,37.18
2017-11-23T09:04:37.257Z,38.41
2017-11-23T09:07:03.908Z,36.76
2017-11-23T09:09:30.515Z,37.71
2017-11-23T09:11:56.773Z,35.01
2017-11-23T09:14:23.275Z,34.80
2017-11-23T09:16:49.793Z,32.64
2017-11-23T09:19:16.240Z,32.10
2017-11-23T09:21:42.702Z,30.64
2017-11-23T09:24:09.199Z,31.77
2017-11-23T09:26:35.636Z,31.45
2017-11-23T09:29:02.084Z,31.02
2017-11-23T09:31:28.596Z,31.46
2017-11-23T09:33:54.936Z,30.49
2017-11-23T09:36:21.427Z,31.01
2017-11-23T09:38:47.921Z,31.71
2017-11-23T09:41:14.363Z,31.76
2017-11-23T09:43:41.007Z,31.54
2017-11-23T09:46:07.661Z,30.57
2017-11-23T09:48:34.291Z,30.90
2017-11-23T09:51:00.939Z,30.43
2017-11-23T09:53:27.432Z,32.18
2017-11-23T09:55:53.866Z,29.92
2017-11-23T09:58:20.308Z,31.17
2017-11-23T10:00:46.751Z,30.88
2017-11-23T10:03:13.267Z,30.97
2017-11-23T10:05:39.714Z,29.56
2017-11-23T10:08:06.225Z,31.44
2017-11-23T10:10:32.672Z,31.33
2017-11-23T10:12:59.113Z,30.29
2017-11-23T10:15:25.561Z,31.01
2017-11-23T10:17:51.972Z,29.20
2017-11-23T10:20:18.413Z,30.36
2017-11-23T10:22:44.825Z,31.01
2017-11-23T10:25:11.619Z,28.39
2017-11-23T10:27:38.043Z,27.79
2017-11-23T10:30:04.693Z,29.95
2017-11-23T10:32:31.204Z,31.24
2017-11-23T10:34:57.719Z,32.16
2017-11-23T10:37:24.401Z,30.99
2017-11-23T10:39:50.842Z,31.00
2017-11-23T10:42:17.481Z,30.88
2017-11-23T10:44:44.062Z,31.07
2017-11-23T10:47:10.504Z,30.89
2017-11-23T10:49:36.973Z,31.08
2017-11-23T10:52:03.467Z,31.18
2017-11-23T10:54:29.904Z,31.32
2017-11-23T10:56:56.483Z,31.93
2017-11-23T10:59:23.115Z,30.13
2017-11-23T11:01:49.790Z,30.60
2017-11-23T11:04:16.250Z,29.37
2017-11-23T11:06:42.692Z,28.63
2017-11-23T11:09:09.136Z,30.06
2017-11-23T11:11:35.651Z,28.81
2017-11-23T11:14:02.336Z,28.98
2017-11-23T11:16:28.975Z,29.68
2017-11-23T11:18:55.476Z,29.26
2017-11-23T11:21:21.995Z,32.69
2017-11-23T11:23:48.435Z,31.34
2017-11-23T11:26:14.717Z,32.13
2017-11-23T11:28:41.433Z,34.05
2017-11-23T11:31:07.830Z,34.96
2017-11-23T11:33:34.281Z,34.47
2017-11-23T11:36:00.796Z,34.74
2017-11-23T11:38:27.238Z,35.64
2017-11-23T11:40:53.681Z,34.91
2017-11-23T11:43:20.359Z,34.42
2017-11-23T11:45:46.966Z,33.57
2017-11-23T11:48:13.384Z,34.74
2017-11-23T11:50:40.066Z,35.01
2017-11-23T11:53:06.707Z,35.37
2017-11-23T11:55:33.410Z,34.60
2017-11-23T11:57:59.924Z,33.26
2017-11-23T12:00:26.269Z,32.79
2017-11-23T12:02:52.643Z,31.07
2017-11-23T12:05:19.258Z,31.24
2017-11-23T12:07:45.697Z,31.09
2017-11-23T12:10:12.136Z,32.34
2017-11-23T12:12:38.787Z,32.78
2017-11-23T12:15:05.428Z,33.16
2017-11-23T12:17:32.064Z,34.10
2017-11-23T12:19:58.500Z,32.60
2017-11-23T12:22:25.125Z,33.68
2017-11-23T12:24:51.569Z,33.23
2017-11-23T12:27:18.063Z,32.03
2017-11-23T12:29:44.511Z,33.10
2017-11-23T12:32:10.944Z,34.54
2017-11-23T12:34:37.459Z,36.93
2017-11-23T12:37:03.907Z,37.53
2017-11-23T12:39:30.344Z,36.25
2017-11-23T12:41:56.860Z,34.04
2017-11-23T12:44:23.301Z,33.33
2017-11-23T12:46:49.746Z,34.25
2017-11-23T12:49:16.261Z,34.47
2017-11-23T12:51:42.728Z,35.08
2017-11-23T12:54:09.386Z,36.19
2017-11-23T12:56:35.989Z,35.51
2017-11-23T12:59:02.407Z,36.79
2017-11-23T13:01:28.874Z,36.17
2017-11-23T13:03:55.143Z,35.51
2017-11-23T13:06:21.607Z,35.55
2017-11-23T13:08:48.189Z,37.50
2017-11-23T13:11:14.816Z,36.35
2017-11-23T13:13:41.235Z,34.95
2017-11-23T13:16:07.685Z,37.29
2017-11-23T13:18:34.192Z,37.15
2017-11-23T13:21:00.636Z,36.31
2017-11-23T13:23:26.993Z,35.77
2017-11-23T13:25:53.634Z,34.03
2017-11-23T13:28:20.137Z,34.98
2017-11-23T13:30:46.703Z,35.74
2017-11-23T13:33:13.323Z,35.70
2017-11-23T13:35:39.838Z,35.53
2017-11-23T13:38:06.414Z,35.66
2017-11-23T13:40:33.048Z,36.30
2017-11-23T13:42:59.540Z,37.19
2017-11-23T13:45:25.975Z,38.26
2017-11-23T13:47:52.422Z,37.86
2017-11-23T13:50:18.941Z,37.15
2017-11-23T13:52:45.282Z,37.73
2017-11-23T13:55:11.800Z,37.80
2017-11-23T13:57:38.244Z,39.87
2017-11-23T14:00:04.688Z,40.69
2017-11-23T14:02:31.158Z,42.68
2017-11-23T14:04:57.797Z,44.73
2017-11-23T14:07:24.410Z,47.03
2017-11-23T14:09:50.855Z,48.38
2017-11-23T14:12:17.310Z,49.61
2017-11-23T14:14:43.912Z,51.23
2017-11-23T14:17:10.587Z,52.45
2017-11-23T14:19:37.072Z,53.44
2017-11-23T14:22:03.512Z,54.35
2017-11-23T14:24:29.954Z,55.19
2017-11-23T14:26:56.473Z,55.76
2017-11-23T14:29:22.914Z,56.61
2017-11-23T14:31:49.590Z,57.55
2017-11-23T14:34:16.036Z,58.06
2017-11-23T14:36:42.661Z,58.44
2017-11-23T14:39:09.157Z,59.56
2017-11-23T14:41:35.696Z,60.37
2017-11-23T14:44:02.117Z,60.81
2017-11-23T14:46:28.804Z,61.89
2017-11-23T14:48:55.425Z,62.84
2017-11-23T14:51:21.841Z,63.23
2017-11-23T14:53:48.515Z,64.33
2017-11-23T14:56:15.128Z,66.00
2017-11-23T14:58:41.542Z,66.61
2017-11-23T15:01:08.018Z,66.38
2017-11-23T15:03:34.660Z,67.61
2017-11-23T15:06:01.274Z,68.11
2017-11-23T15:08:27.956Z,68.96
2017-11-23T15:10:54.529Z,69.89
2017-11-23T15:13:20.969Z,70.06
2017-11-23T15:15:47.643Z,70.32
2017-11-23T15:18:14.281Z,70.67
2017-11-23T15:20:40.765Z,70.81
2017-11-23T15:23:07.213Z,71.14
2017-11-23T15:25:33.584Z,72.93
2017-11-23T15:28:00.094Z,73.49
2017-11-23T15:30:26.613Z,73.50
2017-11-23T15:32:53.028Z,73.84
2017-11-23T15:35:19.728Z,73.90
2017-11-23T15:37:46.215Z,74.52
2017-11-23T15:40:12.656Z,74.80
2017-11-23T15:42:39.097Z,74.81
2017-11-23T15:45:05.616Z,75.83
2017-11-23T15:47:32.309Z,76.31
2017-11-23T15:49:58.730Z,75.84
2017-11-23T15:52:25.196Z,76.81
2017-11-23T15:54:51.682Z,77.51
2017-11-23T15:57:18.099Z,77.44
2017-11-23T15:59:44.641Z,78.53
2017-11-23T16:02:11.099Z,78.21
2017-11-23T16:04:37.750Z,77.76
2017-11-23T16:07:04.367Z,78.52
2017-11-23T16:09:30.810Z,79.54
2017-11-23T16:11:57.454Z,79.98
2017-11-23T16:14:24.068Z,80.58
2017-11-23T16:16:50.509Z,79.94
2017-11-23T16:19:16.950Z,81.08
2017-11-23T16:21:43.597Z,80.84
2017-11-23T16:24:10.211Z,81.27
2017-11-23T16:26:36.500Z,81.37
2017-11-23T16:29:03.087Z,81.08
2017-11-23T16:31:29.510Z,81.19
2017-11-23T16:33:55.952Z,81.53
2017-11-23T16:36:22.410Z,82.13
2017-11-23T16:38:49.037Z,82.48
2017-11-23T16:41:15.685Z,81.98
2017-11-23T16:43:42.169Z,82.49
2017-11-23T16:46:08.611Z,82.57
2017-11-23T16:48:35.180Z,82.10
2017-11-23T16:51:01.820Z,83.04
2017-11-23T16:53:28.664Z,83.51
2017-11-23T16:55:55.306Z,84.01
2017-11-23T16:58:21.630Z,84.03
2017-11-23T17:00:48.159Z,83.69
2017-11-23T17:03:14.579Z,83.57
2017-11-23T17:05:41.194Z,83.91
2017-11-23T17:08:07.637Z,84.29
2017-11-23T17:10:33.979Z,83.95
2017-11-23T17:13:00.494Z,84.68
2017-11-23T17:15:26.839Z,84.79
2017-11-23T17:17:53.279Z,85.15
2017-11-23T17:20:19.796Z,85.46
2017-11-23T17:22:46.140Z,85.60
2017-11-23T17:25:12.555Z,86.02
2017-11-23T17:27:39.177Z,86.25
2017-11-23T17:30:05.787Z,86.60
2017-11-23T17:32:32.216Z,86.56
2017-11-23T17:34:58.657Z,86.64
2017-11-23T17:37:25.139Z,86.79
2017-11-23T17:39:51.579Z,86.27
2017-11-23T17:42:17.850Z,86.59
2017-11-23T17:44:44.179Z,87.29
2017-11-23T17:47:10.612Z,87.63
2017-11-23T17:49:37.224Z,87.79
2017-11-23T17:52:03.641Z,87.99
2017-11-23T17:54:30.082Z,87.81
2017-11-23T17:56:56.758Z,87.87
2017-11-23T17:59:23.364Z,87.86
2017-11-23T18:01:49.783Z,87.83
2017-11-23T18:04:16.467Z,87.93
2017-11-23T18:06:43.090Z,87.91
2017-11-23T18:09:09.745Z,87.89
2017-11-23T18:11:36.045Z,88.05
2017-11-23T18:14:02.467Z,88.05
2017-11-23T18:16:29.046Z,88.53
2017-11-23T18:18:55.525Z,89.09
2017-11-23T18:21:21.922Z,89.39
2017-11-23T18:23:48.526Z,89.73
2017-11-23T18:26:15.189Z,89.66
2017-11-23T18:28:41.541Z,89.48
2017-11-23T18:31:08.002Z,90.03
2017-11-23T18:33:34.274Z,90.52
2017-11-23T18:36:00.511Z,90.53
2017-11-23T18:38:27.129Z,90.45
2017-11-23T18:40:53.584Z,90.14
2017-11-23T18:43:20.069Z,89.91
2017-11-23T18:45:46.510Z,89.83
2017-11-23T18:48:12.917Z,89.63
2017-11-23T18:50:39.524Z,89.88
2017-11-23T18:53:05.965Z,90.17
2017-11-23T18:55:32.389Z,90.27
2017-11-23T18:57:58.667Z,90.28
2017-11-23T19:00:25.106Z,90.52
2017-11-23T19:02:51.480Z,90.56
2017-11-23T19:05:17.991Z,90.29
2017-11-23T19:07:44.413Z,90.39
2017-11-23T19:10:10.853Z,90.95
2017-11-23T19:12:37.297Z,91.21
2017-11-23T19:15:03.709Z,90.92
2017-11-23T19:17:30.154Z,90.85
2017-11-23T19:19:56.592Z,90.92
2017-11-23T19:22:23.011Z,91.03
2017-11-23T19:24:49.392Z,91.10
2017-11-23T19:27:15.825Z,91.32
2017-11-23T19:29:42.243Z,91.11
2017-11-23T19:32:08.892Z,90.95
2017-11-23T19:34:35.393Z,90.93
2017-11-23T19:37:01.967Z,91.01
2017-11-23T19:39:28.210Z,91.00
2017-11-23T19:41:54.694Z,90.82
2017-11-23T19:44:21.057Z,91.09
2017-11-23T19:46:47.487Z,91.51
2017-11-23T19:49:14.118Z,91.96
2017-11-23T19:51:40.768Z,92.32
2017-11-23T19:54:07.411Z,92.64
2017-11-23T19:56:33.919Z,92.45
2017-11-23T19:59:00.313Z,92.42
2017-11-23T20:01:26.779Z,92.30
2017-11-23T20:03:53.155Z,92.28
2017-11-23T20:06:19.788Z,92.21
2017-11-23T20:08:46.403Z,92.24
2017-11-23T20:11:13.060Z,92.40
2017-11-23T20:13:39.687Z,92.42
2017-11-23T20:16:06.181Z,92.74
2017-11-23T20:18:32.727Z,92.68
2017-11-23T20:20:59.162Z,92.66
2017-11-23T20:23:25.799Z,92.75
2017-11-23T20:25:52.245Z,92.81
2017-11-23T20:28:18.689Z,93.03
2017-11-23T20:30:45.354Z,93.40
2017-11-23T20:33:11.824Z,93.11
2017-11-23T20:35:38.417Z,93.37
2017-11-23T20:38:05.030Z,93.56
2017-11-23T20:40:31.489Z,93.21
2017-11-23T20:42:58.127Z,92.62
2017-11-23T20:45:24.554Z,92.27
2017-11-23T20:47:50.973Z,92.35
2017-11-23T20:50:17.387Z,92.42
2017-11-23T20:52:44.066Z,92.21
2017-11-23T20:55:10.900Z,92.20
2017-11-23T20:57:37.390Z,92.28
2017-11-23T21:00:03.934Z,92.42
2017-11-23T21:02:30.367Z,92.46
2017-11-23T21:04:56.645Z,92.58
2017-11-23T21:07:23.255Z,92.69
2017-11-23T21:09:49.695Z,92.55
2017-11-23T21:12:16.112Z,92.64
2017-11-23T21:14:42.581Z,92.72
2017-11-23T21:17:09.012Z,92.57
2017-11-23T21:19:35.289Z,92.59
2017-11-23T21:22:01.727Z,92.83
2017-11-23T21:24:28.169Z,93.23
2017-11-23T21:26:54.541Z,93.68
2017-11-23T21:29:20.977Z,93.65
2017-11-23T21:31:47.467Z,93.50
2017-11-23T21:34:13.887Z,93.37
2017-11-23T21:36:40.327Z,93.32
2017-11-23T21:39:06.538Z,93.11
2017-11-23T21:41:32.836Z,93.35
2017-11-23T21:43:59.460Z,93.45
2017-11-23T21:46:25.908Z,93.49
2017-11-23T21:48:52.615Z,93.50
2017-11-23T21:51:19.134Z,93.56
2017-11-23T21:53:45.574Z,93.40
2017-11-23T21:56:11.844Z,93.40
2017-11-23T21:58:38.458Z,93.52
2017-11-23T22:01:04.872Z,93.59
2017-11-23T22:03:31.313Z,93.33
2017-11-23T22:05:57.988Z,93.33
2017-11-23T22:08:24.374Z,93.56
2017-11-23T22:10:50.594Z,93.78
2017-11-23T22:13:17.036Z,93.84
2017-11-23T22:15:43.475Z,93.99
2017-11-23T22:18:09.912Z,93.77
2017-11-23T22:20:36.590Z,93.74
2017-11-23T22:23:03.214Z,93.49
2017-11-23T22:25:29.867Z,93.43
2017-11-23T22:27:56.359Z,93.29
2017-11-23T22:30:22.799Z,93.64
2017-11-23T22:32:49.317Z,93.61
2017-11-23T22:35:15.782Z,93.40
2017-11-23T22:37:42.200Z,93.71
2017-11-23T22:40:08.646Z,93.83
2017-11-23T22:42:35.181Z,94.01
2017-11-23T22:45:01.625Z,93.96
2017-11-23T22:47:28.045Z,93.88
2017-11-23T22:49:54.581Z,94.01
2017-11-23T22:52:21.026Z,93.86
2017-11-23T22:54:47.440Z,94.05
2017-11-23T22:57:13.876Z,94.21
2017-11-23T22:59:40.319Z,94.22
2017-11-23T23:02:06.749Z,94.10
2017-11-23T23:04:33.183Z,94.12
2017-11-23T23:06:59.552Z,94.17
2017-11-23T23:09:25.751Z,94.40
2017-11-23T23:11:52.433Z,94.54
2017-11-23T23:14:18.925Z,94.62
2017-11-23T23:16:45.341Z,94.59
2017-11-23T23:19:11.785Z,94.68
2017-11-23T23:21:38.225Z,94.73
2017-11-23T23:24:04.641Z,95.05
2017-11-23T23:26:31.083Z,95.15
2017-11-23T23:28:57.262Z,95.19
2017-11-23T23:31:23.450Z,95.25
2017-11-23T23:33:49.905Z,95.43
2017-11-23T23:36:16.526Z,95.38
2017-11-23T23:38:42.967Z,96.03
2017-11-23T23:41:09.621Z,95.69
2017-11-23T23:43:36.128Z,95.70
2017-11-23T23:46:02.640Z,95.88
2017-11-23T23:48:29.084Z,95.97
2017-11-23T23:50:55.526Z,96.04
2017-11-23T23:53:21.942Z,96.10
2017-11-23T23:55:48.632Z,96.07
2017-11-23T23:58:15.249Z,95.94
